createdAt,value
2022-11-24T04:09:55.022Z,99188.56
2022-11-24T04:12:57.590Z,99188.56
2022-11-24T04:15:59.745Z,99200.41
2022-11-24T04:19:02.212Z,99201.84
2022-11-24T04:22:04.269Z,99200.22
2022-11-24T04:25:07.487Z,99210.91
2022-11-24T04:28:09.756Z,99220.50
2022-11-24T04:31:12.107Z,99221.13
2022-11-24T04:34:14.201Z,99223.81
2022-11-24T04:37:16.536Z,99227.25
2022-11-24T04:40:19.227Z,99227.12
2022-11-24T04:43:21.794Z,99231.22
2022-11-24T04:46:23.884Z,99241.00
2022-11-24T04:49:26.304Z,99242.25
2022-11-24T04:52:30.393Z,99254.28
2022-11-24T04:55:32.729Z,99250.81
2022-11-24T04:58:35.082Z,99262.03
2022-11-24T05:01:37.448Z,99256.94
2022-11-24T05:04:39.696Z,99260.63
2022-11-24T05:07:42.117Z,99266.75
2022-11-24T05:10:44.343Z,99264.31
2022-11-24T05:13:46.727Z,99272.69
2022-11-24T05:16:49.067Z,99271.47
2022-11-24T05:19:51.436Z,99273.03
2022-11-24T05:22:53.566Z,99268.63
2022-11-24T05:26:05.268Z,99265.75
2022-11-24T05:29:07.367Z,99263.63
2022-11-24T05:32:09.876Z,99267.56
2022-11-24T05:35:12.034Z,99268.91
2022-11-24T05:38:15.570Z,99263.97
2022-11-24T05:41:17.702Z,99269.16
2022-11-24T05:44:20.068Z,99280.75
2022-11-24T05:47:22.159Z,99274.69
2022-11-24T05:50:24.664Z,99279.97
2022-11-24T05:53:27.080Z,99280.75
2022-11-24T05:56:29.976Z,99301.06
2022-11-24T05:59:32.067Z,99295.34
2022-11-24T06:02:34.507Z,99300.34
2022-11-24T06:05:36.966Z,99293.81
2022-11-24T06:08:39.023Z,99299.78
2022-11-24T06:11:41.874Z,99305.91
2022-11-24T06:14:43.980Z,99309.91
2022-11-24T06:17:54.663Z,99312.19
2022-11-24T06:21:10.183Z,99302.84
2022-11-24T06:24:14.695Z,99313.78
2022-11-24T06:27:16.870Z,99320.03
2022-11-24T06:30:19.405Z,99324.22
2022-11-24T06:33:21.466Z,99335.06
2022-11-24T06:36:23.771Z,99345.94
2022-11-24T06:39:25.924Z,99341.69
2022-11-24T06:42:28.714Z,99344.53
2022-11-24T06:45:30.798Z,99362.97
2022-11-24T06:48:33.244Z,99358.53
2022-11-24T06:51:35.497Z,99358.88
2022-11-24T06:54:37.960Z,99364.34
2022-11-24T06:57:40.012Z,99371.56
2022-11-24T07:00:42.712Z,99371.06
2022-11-24T07:03:45.304Z,99376.41
2022-11-24T07:06:47.706Z,99384.44
2022-11-24T07:09:49.863Z,99385.16
2022-11-24T07:12:52.230Z,99392.97
2022-11-24T07:15:54.275Z,99403.50
2022-11-24T07:18:57.342Z,99398.97
2022-11-24T07:21:59.648Z,99400.69
2022-11-24T07:25:02.646Z,99393.47
2022-11-24T07:28:05.389Z,99412.91
2022-11-24T07:31:13.222Z,99407.37
2022-11-24T07:34:15.307Z,99403.38
2022-11-24T07:37:17.751Z,99410.50
2022-11-24T07:40:19.789Z,99405.66
2022-11-24T07:43:24.482Z,99399.47
2022-11-24T07:46:26.600Z,99409.81
2022-11-24T07:49:28.990Z,99410.25
2022-11-24T07:52:31.142Z,99405.06
2022-11-24T07:55:33.475Z,99423.34
2022-11-24T07:58:37.278Z,99412.94
2022-11-24T08:01:39.764Z,99418.28
2022-11-24T08:04:42.346Z,99419.81
2022-11-24T08:07:44.444Z,99421.56
2022-11-24T08:10:47.055Z,99421.47
2022-11-24T08:13:49.177Z,99411.75
2022-11-24T08:16:51.534Z,99418.00
2022-11-24T08:19:53.686Z,99419.06
2022-11-24T08:23:00.152Z,99419.06
2022-11-24T08:26:14.256Z,99426.81
2022-11-24T08:29:17.107Z,99436.03
2022-11-24T08:32:22.485Z,99445.75
2022-11-24T08:35:25.010Z,99439.03
2022-11-24T08:38:27.096Z,99450.03
2022-11-24T08:41:30.747Z,99450.66
2022-11-24T08:44:33.143Z,99467.16
2022-11-24T08:47:35.828Z,99450.78
2022-11-24T08:50:37.893Z,99458.94
2022-11-24T08:53:41.499Z,99462.69
2022-11-24T08:56:43.588Z,99466.00
2022-11-24T08:59:46.250Z,99458.31
2022-11-24T09:02:57.269Z,99466.50
2022-11-24T09:05:59.568Z,99472.00
2022-11-24T09:09:01.871Z,99476.41
2022-11-24T09:12:05.229Z,99469.28
2022-11-24T09:15:09.933Z,99469.72
2022-11-24T09:18:12.249Z,99479.38
2022-11-24T09:21:21.091Z,99480.28
2022-11-24T09:24:23.562Z,99477.84
2022-11-24T09:27:25.691Z,99483.97
2022-11-24T09:30:28.556Z,99479.03
2022-11-24T09:33:31.925Z,99478.34
2022-11-24T09:36:35.364Z,99485.25
2022-11-24T09:39:37.514Z,99484.50
2022-11-24T09:43:05.741Z,99497.84
2022-11-24T09:46:28.993Z,99491.16
2022-11-24T09:49:34.473Z,99486.53
2022-11-24T09:53:01.319Z,99480.84
2022-11-24T09:56:33.337Z,99482.63
2022-11-24T09:59:35.787Z,99473.91
2022-11-24T10:02:38.636Z,99473.66
2022-11-24T10:05:42.042Z,99478.91
2022-11-24T10:09:11.940Z,99471.12
2022-11-24T10:12:51.412Z,99470.44
2022-11-24T10:16:18.252Z,99479.88
2022-11-24T10:19:37.092Z,99471.16
2022-11-24T10:22:50.913Z,99477.28
2022-11-24T10:26:00.507Z,99482.13
2022-11-24T10:29:13.839Z,99475.19
2022-11-24T10:32:21.829Z,99478.13
2022-11-24T10:35:37.956Z,99478.94
2022-11-24T10:39:02.252Z,99481.31
2022-11-24T10:42:25.910Z,99484.53
2022-11-24T10:45:29.223Z,99474.34
2022-11-24T10:48:39.640Z,99482.75
2022-11-24T10:52:02.068Z,99499.09
2022-11-24T10:55:05.497Z,99494.00
2022-11-24T10:58:17.364Z,99495.47
2022-11-24T11:01:27.803Z,99502.09
2022-11-24T11:04:35.436Z,99517.31
2022-11-24T11:07:37.623Z,99513.63
2022-11-24T11:10:41.518Z,99522.81
2022-11-24T11:14:04.341Z,99532.00
2022-11-24T11:17:36.815Z,99529.88
2022-11-24T11:20:38.909Z,99538.97
2022-11-24T11:23:43.335Z,99538.72
2022-11-24T11:26:45.513Z,99550.13
2022-11-24T11:36:51.589Z,99551.66
2022-11-24T11:39:55.341Z,99553.97
2022-11-24T11:43:12.841Z,99558.72
2022-11-24T11:46:16.882Z,99559.81
2022-11-24T11:49:19.935Z,99552.66
2022-11-24T11:52:40.694Z,99549.16
2022-11-24T11:55:49.681Z,99557.28
2022-11-24T11:58:55.023Z,99555.47
2022-11-24T12:02:28.760Z,99551.66
2022-11-24T12:05:47.443Z,99556.47
2022-11-24T12:09:23.467Z,99562.91
2022-11-24T12:12:28.633Z,99569.97
2022-11-24T12:15:30.922Z,99564.56
2022-11-24T12:18:57.461Z,99563.56
2022-11-24T12:22:41.731Z,99557.28
2022-11-24T12:26:09.177Z,99557.94
2022-11-24T12:29:36.618Z,99564.91
2022-11-24T12:32:54.448Z,99566.37
2022-11-24T12:36:09.296Z,99568.56
2022-11-24T12:39:27.693Z,99567.09
2022-11-24T12:43:16.788Z,99572.06
2022-11-24T12:46:44.998Z,99579.72
2022-11-24T12:50:01.622Z,99588.44
2022-11-24T12:53:22.294Z,99589.97
2022-11-24T12:56:36.509Z,99600.56
2022-11-24T13:00:05.972Z,99604.84
2022-11-24T13:03:26.519Z,99607.50
2022-11-24T13:06:34.939Z,99606.66
2022-11-24T13:09:37.519Z,99610.22
2022-11-24T13:13:19.141Z,99598.50
2022-11-24T13:16:48.482Z,99604.50
2022-11-24T13:19:44.605Z,99609.63
2022-11-24T13:22:58.549Z,99610.91
2022-11-24T13:26:16.077Z,99612.31
2022-11-24T13:29:27.195Z,99618.44
2022-11-24T13:32:32.299Z,99633.38
2022-11-24T13:35:34.528Z,99624.25
2022-11-24T13:38:45.964Z,99620.59
2022-11-24T13:41:47.991Z,99617.00
2022-11-24T13:45:26.511Z,99619.28
2022-11-24T13:48:28.522Z,99613.44
2022-11-24T13:51:30.902Z,99618.47
2022-11-24T13:54:33.549Z,99620.44
2022-11-24T13:57:39.837Z,99620.25
2022-11-24T14:01:00.334Z,99625.41
2022-11-24T14:04:43.200Z,99642.84
2022-11-24T14:07:37.253Z,99636.09
2022-11-24T14:10:41.992Z,99645.69
2022-11-24T14:13:44.361Z,99651.75
2022-11-24T14:16:46.748Z,99644.19
2022-11-24T14:19:51.666Z,99653.41
2022-11-24T14:22:54.453Z,99656.13
2022-11-24T14:25:56.609Z,99660.75
2022-11-24T14:29:23.125Z,99660.88
2022-11-24T14:32:25.447Z,99665.44
2022-11-24T14:35:32.292Z,99667.94
2022-11-24T14:38:34.429Z,99667.47
2022-11-24T14:41:36.800Z,99675.53
2022-11-24T14:44:41.920Z,99680.37
2022-11-24T14:47:45.090Z,99677.56
2022-11-24T14:50:47.357Z,99678.56
2022-11-24T14:53:56.393Z,99672.66
2022-11-24T14:57:04.593Z,99684.28
2022-11-24T15:00:31.382Z,99688.13
2022-11-24T15:03:33.640Z,99703.13
2022-11-24T15:06:35.987Z,99703.97
2022-11-24T15:09:48.687Z,99711.37
2022-11-24T15:12:58.416Z,99716.66
2022-11-24T15:16:08.843Z,99707.06
2022-11-24T15:19:15.888Z,99718.34
2022-11-24T15:22:47.325Z,99722.50
2022-11-24T15:26:02.444Z,99721.31
2022-11-24T15:29:04.478Z,99719.78
2022-11-24T15:32:14.428Z,99718.28
2022-11-24T15:35:16.591Z,99716.53
2022-11-24T15:38:19.418Z,99723.34
2022-11-24T15:41:29.463Z,99724.38
2022-11-24T15:44:33.019Z,99740.59
2022-11-24T15:47:35.381Z,99730.06
2022-11-24T15:50:37.835Z,99730.16
2022-11-24T15:53:44.631Z,99740.22
2022-11-24T15:56:47.358Z,99744.91
2022-11-24T15:59:49.432Z,99749.84
2022-11-24T16:02:51.735Z,99751.16
2022-11-24T16:05:55.361Z,99743.03
2022-11-24T16:08:58.129Z,99748.59
2022-11-24T16:12:00.529Z,99747.38
2022-11-24T16:15:02.758Z,99753.84
2022-11-24T16:18:05.815Z,99753.06
2022-11-24T16:21:08.843Z,99747.47
2022-11-24T16:24:11.329Z,99750.34
2022-11-24T16:27:13.440Z,99749.16
